Time;durP1;ratioP1;P1;durP2;ratioP2;P2;SDS_P1;SDS_P2;PMS_P1;PMS_P2;Temp;Humidity;BMP_temperature;BMP_pressure;BME280_temperature;BME280_humidity;BME280_pressure;Samples;Min_cycle;Max_cycle;Signal;HPM_P1;HPM_P2
2022/11/15 00:00:48;;;;;;;105.90;37.67;;;;;;;7.70;100.00;100848.19;5008520;28;20030;-66
2022/11/15 00:03:14;;;;;;;100.05;36.17;;;;;;;7.68;100.00;100853.47;5008530;28;20041;-66
2022/11/15 00:05:40;;;;;;;102.82;37.72;;;;;;;7.74;100.00;100852.50;5008465;28;20083;-65
2022/11/15 00:08:06;;;;;;;96.85;38.28;;;;;;;7.78;100.00;100853.28;5007754;28;20026;-65
2022/11/15 00:10:31;;;;;;;93.40;36.40;;;;;;;7.81;100.00;100856.72;5008629;28;20022;-67
2022/11/15 00:12:56;;;;;;;102.50;38.20;;;;;;;7.81;100.00;100850.59;5006811;28;20017;-68
2022/11/15 00:15:22;;;;;;;104.22;39.13;;;;;;;7.75;100.00;100842.84;5007217;28;20044;-67
2022/11/15 00:17:50;;;;;;;106.65;38.97;;;;;;;7.81;100.00;100845.34;5008310;28;20025;-66
2022/11/15 00:20:17;;;;;;;98.57;39.60;;;;;;;7.89;100.00;100845.19;5006693;28;20034;-66
2022/11/15 00:22:42;;;;;;;94.13;36.72;;;;;;;7.79;100.00;100840.13;5008416;28;20409;-66
2022/11/15 00:25:08;;;;;;;92.75;36.30;;;;;;;7.81;100.00;100843.59;5007540;28;20030;-66
2022/11/15 00:27:33;;;;;;;92.18;37.00;;;;;;;7.82;100.00;100845.31;5008094;28;20033;-65
2022/11/15 00:29:59;;;;;;;103.28;38.65;;;;;;;7.76;100.00;100841.94;5008047;28;20476;-65
2022/11/15 00:32:24;;;;;;;112.13;39.17;;;;;;;7.77;100.00;100836.66;5008915;28;20620;-68
2022/11/15 00:34:49;;;;;;;101.55;37.65;;;;;;;7.85;100.00;100836.50;5009290;28;20450;-69
2022/11/15 00:37:14;;;;;;;110.07;37.78;;;;;;;7.89;100.00;100824.19;5008972;28;20131;-66
2022/11/15 00:39:40;;;;;;;99.47;37.63;;;;;;;7.69;100.00;100822.88;5015175;28;20126;-66
2022/11/15 00:42:05;;;;;;;101.97;38.33;;;;;;;7.75;100.00;100820.13;5026904;28;20021;-66
2022/11/15 00:44:30;;;;;;;104.25;38.80;;;;;;;7.76;100.00;100808.72;5021879;28;20030;-65
2022/11/15 00:46:59;;;;;;;108.68;38.75;;;;;;;7.78;100.00;100816.56;5007709;28;20472;-67
2022/11/15 00:49:24;;;;;;;110.57;41.35;;;;;;;7.82;100.00;100813.81;5006516;28;20384;-68
2022/11/15 00:51:50;;;;;;;113.30;39.90;;;;;;;7.85;100.00;100805.00;5008624;28;20026;-66
2022/11/15 00:54:15;;;;;;;116.60;38.42;;;;;;;7.88;100.00;100807.56;5007549;28;20072;-65
2022/11/15 00:56:40;;;;;;;123.20;39.97;;;;;;;7.89;100.00;100811.06;5006805;28;20022;-66
2022/11/15 00:59:06;;;;;;;103.75;38.05;;;;;;;7.96;100.00;100815.28;5007702;28;20030;-67
2022/11/15 01:01:31;;;;;;;112.43;40.60;;;;;;;7.91;100.00;100817.13;5007233;28;20361;-67
2022/11/15 01:03:57;;;;;;;106.70;38.55;;;;;;;7.91;100.00;100811.88;5013474;28;20058;-66
2022/11/15 01:06:22;;;;;;;96.32;37.83;;;;;;;8.02;100.00;100804.63;5026505;28;20045;-66
2022/11/15 01:08:47;;;;;;;113.97;39.72;;;;;;;8.07;100.00;100807.16;5006211;28;20034;-66
2022/11/15 01:11:13;;;;;;;101.82;39.28;;;;;;;8.06;100.00;100808.03;5006580;28;20088;-66
2022/11/15 01:13:39;;;;;;;106.32;38.95;;;;;;;8.09;100.00;100795.72;5006414;28;20025;-67
2022/11/15 01:16:18;;;;;;;103.07;38.08;;;;;;;8.18;100.00;100805.13;5007927;28;20034;-66
2022/11/15 01:18:43;;;;;;;117.47;41.03;;;;;;;8.20;100.00;100791.97;5007871;28;20033;-66
2022/11/15 01:21:11;;;;;;;110.70;39.78;;;;;;;8.20;100.00;100791.97;5007750;28;20026;-66
2022/11/15 01:23:37;;;;;;;102.28;37.25;;;;;;;8.22;100.00;100793.63;5008465;28;20025;-66
2022/11/15 01:26:04;;;;;;;107.70;40.30;;;;;;;8.27;100.00;100787.41;5007102;28;20088;-66
2022/11/15 01:28:33;;;;;;;126.63;41.15;;;;;;;8.28;100.00;100787.38;5007049;28;20052;-66
2022/11/15 01:31:00;;;;;;;109.85;39.83;;;;;;;8.28;100.00;100784.75;5007151;28;20101;-66
2022/11/15 01:33:26;;;;;;;123.43;41.25;;;;;;;8.26;100.00;100786.56;5005572;28;20092;-67
2022/11/15 01:35:51;;;;;;;126.22;41.25;;;;;;;8.39;100.00;100780.97;5007665;28;20033;-67
2022/11/15 01:38:17;;;;;;;127.13;40.40;;;;;;;8.28;100.00;100776.03;5006909;28;20022;-66
2022/11/15 01:40:42;;;;;;;133.30;43.15;;;;;;;8.35;100.00;100774.97;5007568;28;20125;-66
2022/11/15 01:43:29;;;;;;;114.95;41.63;;;;;;;8.38;100.00;100779.25;5006814;28;20076;-66
2022/11/15 01:46:00;;;;;;;130.65;42.30;;;;;;;8.43;100.00;100777.41;5007131;28;20049;-68
2022/11/15 01:48:31;;;;;;;117.15;41.47;;;;;;;8.40;100.00;100773.06;5006252;28;20386;-65
2022/11/15 01:50:58;;;;;;;122.60;43.30;;;;;;;8.48;100.00;100772.88;5007281;28;20435;-67
2022/11/15 01:53:24;;;;;;;133.25;44.00;;;;;;;8.43;100.00;100759.03;5005634;28;20113;-66
2022/11/15 01:55:49;;;;;;;131.30;45.28;;;;;;;8.46;100.00;100761.56;5006126;28;20079;-66
2022/11/15 01:58:15;;;;;;;130.10;42.08;;;;;;;8.54;100.00;100759.63;5005096;28;20400;-66
2022/11/15 02:00:40;;;;;;;134.52;44.85;;;;;;;8.52;100.00;100756.13;5008115;28;20512;-66
2022/11/15 02:03:06;;;;;;;142.00;45.72;;;;;;;8.62;100.00;100761.16;5010746;28;20034;-67
2022/11/15 02:05:31;;;;;;;132.95;43.78;;;;;;;8.66;100.00;100753.16;5009834;28;20053;-66
2022/11/15 02:07:57;;;;;;;145.00;44.80;;;;;;;8.69;100.00;100753.09;5023184;28;20045;-67
2022/11/15 02:10:24;;;;;;;124.07;42.05;;;;;;;8.74;100.00;100739.84;5080630;22;20504;-67
2022/11/15 02:12:49;;;;;;;117.60;43.80;;;;;;;8.77;100.00;100739.75;4989654;28;20023;-67
2022/11/15 02:15:15;;;;;;;132.95;45.35;;;;;;;8.88;100.00;100735.94;4991576;28;20032;-67
2022/11/15 02:17:59;;;;;;;120.32;43.35;;;;;;;8.85;100.00;100727.25;4992198;28;20053;-67
2022/11/15 02:20:36;;;;;;;134.95;45.22;;;;;;;8.79;100.00;100730.03;4991526;28;20034;-69
2022/11/15 02:23:23;;;;;;;121.25;42.50;;;;;;;8.91;100.00;100725.34;4991517;28;20076;-67
2022/11/15 02:25:57;;;;;;;122.90;41.83;;;;;;;8.96;100.00;100712.94;4991015;28;20507;-67
2022/11/15 02:28:45;;;;;;;125.32;41.90;;;;;;;8.98;100.00;100719.84;4991465;28;20046;-68
2022/11/15 02:31:17;;;;;;;113.28;41.35;;;;;;;8.95;100.00;100711.22;4989779;28;20030;-65
2022/11/15 02:34:00;;;;;;;120.70;39.72;;;;;;;8.98;100.00;100716.38;4993062;28;20080;-67
2022/11/15 02:36:47;;;;;;;114.53;43.30;;;;;;;9.07;100.00;100710.88;4994771;28;20034;-68
2022/11/15 02:39:31;;;;;;;124.10;41.83;;;;;;;9.10;100.00;100704.66;4988807;28;20038;-67
2022/11/15 02:43:56;;;;;;;124.72;42.15;;;;;;;9.14;100.00;100705.41;4990119;28;20023;-67
2022/11/15 02:44:58;;;;;;;122.68;41.95;;;;;;;9.13;100.00;100699.31;4990787;28;20158;-66
2022/11/15 02:47:24;;;;;;;110.13;40.13;;;;;;;9.15;100.00;100701.88;4990211;28;20038;-67
2022/11/15 02:49:55;;;;;;;126.78;43.17;;;;;;;9.15;100.00;100701.88;4989144;28;20104;-66
2022/11/15 02:52:22;;;;;;;122.18;42.63;;;;;;;9.17;100.00;100695.66;4989429;28;20034;-67
2022/11/15 02:54:55;;;;;;;124.45;41.63;;;;;;;9.24;100.00;100698.94;4989158;28;20118;-66
2022/11/15 02:57:43;;;;;;;115.00;42.33;;;;;;;9.22;100.00;100700.78;4990277;28;20030;-66
2022/11/15 03:00:09;;;;;;;130.48;44.53;;;;;;;9.32;100.00;100691.72;4989193;28;20046;-66
2022/11/15 03:02:53;;;;;;;124.35;42.33;;;;;;;9.29;100.00;100694.44;4990565;28;20389;-66
2022/11/15 03:05:39;;;;;;;115.55;42.65;;;;;;;9.30;100.00;100693.50;4989877;28;20041;-67
2022/11/15 03:08:21;;;;;;;137.05;45.13;;;;;;;9.29;100.00;100693.56;4972430;28;20051;-66
2022/11/15 03:11:08;;;;;;;117.80;41.83;;;;;;;9.33;100.00;100696.06;4989339;28;20125;-67
2022/11/15 03:13:37;;;;;;;109.82;40.22;;;;;;;9.44;100.00;100686.97;4988014;28;20037;-66
2022/11/15 03:16:16;;;;;;;94.72;38.42;;;;;;;9.52;100.00;100690.22;4989679;28;20511;-67
2022/11/15 03:18:45;;;;;;;112.93;41.47;;;;;;;9.54;100.00;100690.19;4989718;28;20030;-67
2022/11/15 03:21:11;;;;;;;96.28;40.90;;;;;;;9.59;100.00;100696.13;4988350;28;20030;-66
2022/11/15 03:23:38;;;;;;;109.70;42.90;;;;;;;9.66;100.00;100687.13;4990146;28;20132;-67
2022/11/15 03:26:07;;;;;;;103.47;40.88;;;;;;;9.66;100.00;100686.28;4988143;28;20100;-65
2022/11/15 03:28:37;;;;;;;112.13;40.83;;;;;;;9.75;100.00;100696.50;4989600;28;20038;-66
2022/11/15 03:31:46;;;;;;;103.15;39.67;;;;;;;9.77;100.00;100689.41;4987566;28;20057;-67
2022/11/15 03:33:51;;;;;;;104.32;39.20;;;;;;;9.73;100.00;100690.44;4989673;28;20542;-66
2022/11/15 03:36:17;;;;;;;89.17;37.20;;;;;;;9.80;100.00;100693.72;4988351;28;20384;-68
2022/11/15 03:38:44;;;;;;;97.50;40.40;;;;;;;9.90;100.00;100681.13;4988652;28;20037;-67
2022/11/15 03:41:20;;;;;;;95.63;38.15;;;;;;;9.88;100.00;100683.81;4988663;28;20117;-67
2022/11/15 03:43:51;;;;;;;82.10;36.05;;;;;;;9.88;100.00;100685.56;4988062;28;20026;-67
2022/11/15 03:46:26;;;;;;;91.32;39.17;;;;;;;9.90;100.00;100689.84;4988656;28;20033;-68
2022/11/15 03:49:04;;;;;;;89.85;37.22;;;;;;;9.98;100.00;100681.72;4988529;28;20055;-67
2022/11/15 03:51:30;;;;;;;84.65;36.65;;;;;;;10.03;100.00;100678.94;4988145;28;20496;-66
2022/11/15 03:53:55;;;;;;;99.75;39.15;;;;;;;9.99;100.00;100684.28;4989603;28;20030;-66
2022/11/15 03:56:20;;;;;;;86.63;37.42;;;;;;;10.02;100.00;100691.22;4988272;28;20037;-66
2022/11/15 03:58:46;;;;;;;86.40;37.03;;;;;;;10.05;100.00;100693.75;4989116;28;20042;-66
2022/11/15 04:01:11;;;;;;;92.88;38.95;;;;;;;10.06;100.00;100687.56;4989079;28;20093;-68
2022/11/15 04:03:36;;;;;;;74.05;34.88;;;;;;;10.16;100.00;100685.50;4988981;28;20037;-66
2022/11/15 04:06:02;;;;;;;80.43;35.75;;;;;;;10.19;100.00;100685.38;4989778;28;20524;-66
2022/11/15 04:08:27;;;;;;;75.80;34.42;;;;;;;10.22;100.00;100673.88;4989664;28;20030;-66
2022/11/15 04:10:52;;;;;;;79.90;34.20;;;;;;;10.17;100.00;100678.47;4989645;28;20072;-66
2022/11/15 04:13:18;;;;;;;74.45;31.42;;;;;;;10.22;100.00;100671.25;4988429;28;20033;-66
2022/11/15 04:15:43;;;;;;;71.20;32.38;;;;;;;10.25;100.00;100673.78;4989469;28;20890;-67
2022/11/15 04:18:08;;;;;;;66.57;31.30;;;;;;;10.21;100.00;100667.75;5008866;28;20053;-66
2022/11/15 04:26:11;;;;;;;59.38;29.83;;;;;;;10.34;100.00;100656.78;5003609;28;20543;-66
2022/11/15 04:29:34;;;;;;;65.53;29.60;;;;;;;10.36;100.00;100655.81;4987739;28;20026;-66
2022/11/15 04:31:25;;;;;;;58.55;27.90;;;;;;;10.40;100.00;100653.06;4988166;28;20030;-66
2022/11/15 04:33:50;;;;;;;60.53;28.02;;;;;;;10.38;100.00;100645.22;4989354;28;20034;-65
2022/11/15 04:38:59;;;;;;;49.00;26.95;;;;;;;10.47;100.00;100650.19;4988326;28;20065;-67
2022/11/15 04:41:25;;;;;;;56.97;26.50;;;;;;;10.48;100.00;100658.97;4986625;28;20034;-67
2022/11/15 04:43:50;;;;;;;53.13;25.77;;;;;;;10.50;100.00;100659.75;4987407;28;20101;-68
2022/11/15 04:46:15;;;;;;;54.60;25.48;;;;;;;10.53;100.00;100666.69;4987624;28;20026;-67
2022/11/15 04:48:41;;;;;;;55.53;25.50;;;;;;;10.55;100.00;100663.09;4988585;28;20027;-67
2022/11/15 04:51:06;;;;;;;46.00;25.15;;;;;;;10.59;100.00;100662.06;4987736;28;20039;-67
2022/11/15 04:53:31;;;;;;;50.22;26.40;;;;;;;10.59;100.00;100677.00;4988629;28;20033;-66
2022/11/15 04:55:57;;;;;;;58.03;26.38;;;;;;;10.56;100.00;100675.34;4987203;28;20497;-67
2022/11/15 04:58:22;;;;;;;53.30;25.95;;;;;;;10.59;100.00;100683.13;4989014;28;20045;-66
2022/11/15 05:00:47;;;;;;;53.20;26.15;;;;;;;10.67;100.00;100684.63;4987870;28;20073;-66
2022/11/15 05:05:57;;;;;;;46.50;23.42;;;;;;;10.80;100.00;100682.38;4987944;28;20498;-66
2022/11/15 05:08:22;;;;;;;48.22;24.25;;;;;;;10.90;100.00;100675.88;4988397;28;20113;-66
2022/11/15 05:10:48;;;;;;;50.78;24.15;;;;;;;10.97;100.00;100687.91;4987991;28;20080;-66
2022/11/15 05:13:13;;;;;;;49.45;23.95;;;;;;;10.97;100.00;100687.91;4986827;28;20068;-67
2022/11/15 05:15:39;;;;;;;42.70;23.58;;;;;;;11.04;100.00;100688.50;5007949;28;20022;-66
2022/11/15 05:18:04;;;;;;;42.15;22.48;;;;;;;11.09;100.00;100698.88;5006850;28;20021;-67
2022/11/15 05:20:29;;;;;;;42.65;22.80;;;;;;;11.09;100.00;100693.59;5007412;28;20034;-67
2022/11/15 05:22:57;;;;;;;43.72;22.23;;;;;;;11.14;100.00;100689.03;5007879;28;20025;-68
2022/11/15 05:25:23;;;;;;;46.83;22.27;;;;;;;11.22;100.00;100684.31;5008017;28;20045;-66
2022/11/15 05:27:48;;;;;;;41.17;20.17;;;;;;;11.26;100.00;100690.34;5006593;28;20520;-67
2022/11/15 05:30:15;;;;;;;35.60;18.23;;;;;;;11.27;100.00;100683.25;5005880;28;20525;-68
2022/11/15 05:32:40;;;;;;;39.17;19.90;;;;;;;11.23;100.00;100688.66;4989835;28;20042;-66
2022/11/15 05:35:07;;;;;;;36.17;18.35;;;;;;;11.23;100.00;100683.38;5008571;28;20029;-70
2022/11/15 05:37:32;;;;;;;36.03;17.65;;;;;;;11.29;100.00;100684.06;5010011;28;20034;-67
2022/11/15 05:39:57;;;;;;;28.98;16.88;;;;;;;11.29;100.00;100674.34;5011220;28;20109;-68
2022/11/15 05:42:25;;;;;;;30.83;17.10;;;;;;;11.31;100.00;100679.56;5005658;28;20030;-67
2022/11/15 05:44:50;;;;;;;37.00;16.65;;;;;;;11.23;100.00;100682.53;4991222;28;20472;-66
2022/11/15 05:47:25;;;;;;;31.48;15.90;;;;;;;11.29;100.00;100671.72;4989533;28;20040;-67
2022/11/15 05:49:52;;;;;;;34.42;16.60;;;;;;;11.29;100.00;100671.72;4991485;28;20038;-68
2022/11/15 05:52:20;;;;;;;23.50;14.90;;;;;;;11.21;100.00;100677.31;4997415;28;20069;-66
2022/11/15 05:54:46;;;;;;;22.02;14.18;;;;;;;11.18;100.00;100684.47;4994676;28;20037;-67
2022/11/15 05:57:11;;;;;;;23.10;13.73;;;;;;;11.19;100.00;100686.19;4993278;28;20023;-67
2022/11/15 05:59:37;;;;;;;30.75;15.02;;;;;;;11.20;100.00;100687.94;4975933;28;20018;-68
2022/11/15 06:02:02;;;;;;;27.23;13.40;;;;;;;11.23;100.00;100687.81;4989795;28;20050;-68
2022/11/15 06:04:28;;;;;;;28.67;12.35;;;;;;;11.23;100.00;100693.09;4991359;28;20038;-67
2022/11/15 06:06:53;;;;;;;29.88;13.95;;;;;;;11.21;100.00;100697.56;4990586;28;20070;-66
2022/11/15 06:09:19;;;;;;;24.63;12.70;;;;;;;11.19;100.00;100694.09;4989894;28;20093;-68
2022/11/15 06:11:44;;;;;;;24.05;11.30;;;;;;;11.20;100.00;100687.94;5000807;28;20037;-68
2022/11/15 06:14:09;;;;;;;23.30;11.05;;;;;;;11.14;100.00;100704.84;5009616;28;20026;-67
2022/11/15 06:16:35;;;;;;;23.27;11.32;;;;;;;11.19;100.00;100702.00;5006786;28;20034;-67
2022/11/15 06:19:00;;;;;;;21.67;10.10;;;;;;;11.17;100.00;100706.50;5008256;28;20049;-67
2022/11/15 06:21:27;;;;;;;20.00;9.40;;;;;;;11.15;100.00;100703.06;5009190;28;20021;-67
2022/11/15 06:23:53;;;;;;;27.73;10.68;;;;;;;11.16;100.00;100710.03;5009035;28;20029;-68
2022/11/15 06:26:18;;;;;;;23.25;9.90;;;;;;;11.15;100.00;100706.56;5008773;28;20076;-66
2022/11/15 06:28:44;;;;;;;20.92;8.82;;;;;;;11.07;100.00;100719.16;5010962;28;20025;-66
2022/11/15 06:31:13;;;;;;;21.10;8.82;;;;;;;11.01;100.00;100724.69;5011105;28;20050;-68
2022/11/15 06:33:39;;;;;;;18.77;8.35;;;;;;;11.03;100.00;100730.75;5009177;28;20029;-68
2022/11/15 06:36:07;;;;;;;18.35;7.95;;;;;;;10.95;100.00;100720.50;5009567;28;20034;-67
2022/11/15 06:38:32;;;;;;;16.77;7.85;;;;;;;10.87;100.00;100716.38;5010558;28;20029;-68
2022/11/15 06:41:03;;;;;;;16.85;7.53;;;;;;;10.76;100.00;100718.56;5008074;28;20029;-67
2022/11/15 06:43:28;;;;;;;18.95;7.95;;;;;;;10.67;100.00;100717.13;5010259;28;20137;-67
2022/11/15 06:45:53;;;;;;;14.65;6.45;;;;;;;10.60;100.00;100713.81;4999298;28;20121;-69
2022/11/15 06:48:19;;;;;;;18.67;6.88;;;;;;;10.53;100.00;100719.41;4991097;28;20477;-67
2022/11/15 06:50:51;;;;;;;17.50;7.88;;;;;;;10.55;100.00;100714.91;4988156;28;20448;-67
2022/11/15 06:53:16;;;;;;;16.92;6.63;;;;;;;10.49;100.00;100721.25;4990108;28;20018;-69
2022/11/15 06:55:42;;;;;;;16.83;7.13;;;;;;;10.48;100.00;100738.00;4989610;28;20766;-68
2022/11/15 06:58:07;;;;;;;13.45;7.88;;;;;;;10.52;100.00;100741.38;4990430;28;20211;-67
2022/11/15 07:00:32;;;;;;;19.95;7.30;;;;;;;10.52;100.00;100736.09;4988887;28;20424;-68
2022/11/15 07:03:00;;;;;;;20.42;7.57;;;;;;;10.52;100.00;100736.09;4990515;28;20645;-68
2022/11/15 07:05:26;;;;;;;17.85;7.53;;;;;;;10.48;100.00;100732.72;4989244;28;20026;-68
2022/11/15 07:07:53;;;;;;;18.75;8.48;;;;;;;10.49;100.00;100734.44;4978822;28;20031;-67
2022/11/15 07:10:18;;;;;;;24.13;8.63;;;;;;;10.55;100.00;100726.31;4980764;28;20137;-68
2022/11/15 07:12:47;;;;;;;22.13;9.30;;;;;;;10.53;100.00;100727.28;4979167;28;20579;-67
2022/11/15 07:15:12;;;;;;;22.08;8.45;;;;;;;10.58;100.00;100723.56;4977539;28;20461;-67
2022/11/15 07:17:38;;;;;;;19.63;8.57;;;;;;;10.61;100.00;100722.59;4979081;28;20054;-67
2022/11/15 07:20:03;;;;;;;14.07;8.00;;;;;;;10.63;100.00;100720.78;4974275;28;20026;-68
2022/11/15 07:22:29;;;;;;;19.02;8.50;;;;;;;10.60;100.00;100726.16;4970191;28;20031;-67
2022/11/15 07:24:54;;;;;;;19.17;8.82;;;;;;;10.63;100.00;100725.19;4969702;28;20022;-68
2022/11/15 07:27:19;;;;;;;19.17;8.25;;;;;;;10.67;100.00;100742.59;4972016;28;20043;-67
2022/11/15 07:29:45;;;;;;;16.67;8.20;;;;;;;10.64;100.00;100729.53;4979775;28;20439;-66
2022/11/15 07:32:10;;;;;;;18.67;7.95;;;;;;;10.76;100.00;100728.22;4978399;28;20466;-67
2022/11/15 07:34:36;;;;;;;21.33;7.68;;;;;;;10.78;100.00;100735.19;4976202;28;20049;-67
2022/11/15 07:37:01;;;;;;;18.05;8.27;;;;;;;10.86;100.00;100733.09;4976945;28;20014;-66
2022/11/15 07:39:26;;;;;;;18.23;7.07;;;;;;;10.87;100.00;100715.53;4979000;28;20019;-67
2022/11/15 07:42:52;;;;;;;15.20;6.93;;;;;;;10.82;100.00;100720.97;4979172;28;20026;-68
2022/11/15 07:44:37;;;;;;;13.95;6.85;;;;;;;10.90;100.00;100720.69;4983773;28;20043;-66
2022/11/15 07:47:02;;;;;;;18.08;5.95;;;;;;;10.89;100.00;100726.00;4976118;28;20370;-66
2022/11/15 07:49:28;;;;;;;15.52;6.03;;;;;;;10.79;100.00;100722.84;4976470;28;20122;-68
2022/11/15 07:51:53;;;;;;;12.13;5.90;;;;;;;10.77;100.00;100728.16;4972457;28;20061;-65
2022/11/15 07:54:18;;;;;;;15.85;5.82;;;;;;;10.64;100.00;100719.84;4973734;28;20087;-67
2022/11/15 07:56:44;;;;;;;16.95;5.90;;;;;;;10.59;100.00;100721.78;4987557;28;20038;-66
2022/11/15 07:59:09;;;;;;;14.90;6.18;;;;;;;10.51;100.00;100722.09;4988733;28;20384;-65
2022/11/15 08:01:34;;;;;;;14.55;6.63;;;;;;;10.43;100.00;100719.69;4988623;28;20030;-65
2022/11/15 08:04:00;;;;;;;18.02;6.32;;;;;;;10.29;100.00;100711.41;4987834;28;20137;-68
2022/11/15 08:06:26;;;;;;;15.23;6.60;;;;;;;10.30;100.00;100707.84;4988524;28;20046;-65
2022/11/15 08:08:51;;;;;;;18.70;7.82;;;;;;;10.20;100.00;100702.91;4989069;28;20577;-65
2022/11/15 08:11:17;;;;;;;14.60;6.45;;;;;;;10.15;100.00;100699.59;4988006;28;20459;-65
2022/11/15 08:13:42;;;;;;;14.65;7.82;;;;;;;10.21;100.00;100693.22;4978388;28;20472;-65
2022/11/15 08:16:08;;;;;;;18.90;8.68;;;;;;;10.23;100.00;100696.66;4976158;28;20019;-65
2022/11/15 08:18:33;;;;;;;24.73;10.23;;;;;;;10.24;100.00;100691.34;4980023;28;20027;-67
2022/11/15 08:21:00;;;;;;;26.05;11.25;;;;;;;10.18;100.00;100685.44;4975913;28;20068;-66
2022/11/15 08:23:25;;;;;;;20.20;11.77;;;;;;;10.15;100.00;100690.81;4979289;28;20497;-68
2022/11/15 08:25:50;;;;;;;27.95;12.45;;;;;;;10.29;100.00;100683.28;4975553;28;20054;-67
2022/11/15 08:28:16;;;;;;;20.55;11.25;;;;;;;10.44;100.00;100683.63;4976076;28;20034;-67
2022/11/15 08:30:42;;;;;;;20.52;12.25;;;;;;;10.57;100.00;100684.94;4969261;28;20031;-67
2022/11/15 08:33:11;;;;;;;22.13;11.85;;;;;;;10.57;100.00;100681.47;4967539;28;20042;-67
2022/11/15 08:35:36;;;;;;;;;;;;;;;10.70;100.00;100680.13;4972183;28;20026;-67
2022/11/15 08:38:03;;;;;;;20.23;10.32;;;;;;;10.68;100.00;100679.28;4980354;28;19921;-64
2022/11/15 08:40:28;;;;;;;22.35;10.02;;;;;;;10.68;100.00;100681.94;4970169;28;20138;-68
2022/11/15 08:42:53;;;;;;;18.80;10.48;;;;;;;10.62;100.00;100679.50;4969252;28;20513;-68
2022/11/15 08:45:19;;;;;;;22.15;10.90;;;;;;;10.72;100.00;100674.78;4966650;28;20026;-68
2022/11/15 08:47:44;;;;;;;18.95;9.30;;;;;;;10.73;100.00;100673.84;4999695;28;20025;-67
2022/11/15 08:50:09;;;;;;;19.90;9.65;;;;;;;10.73;100.00;100673.84;5006713;28;20036;-67
2022/11/15 08:52:35;;;;;;;22.30;9.27;;;;;;;10.71;100.00;100659.88;5006381;28;20022;-67
2022/11/15 08:55:00;;;;;;;18.33;8.68;;;;;;;10.85;100.00;100665.50;4994482;28;20057;-67
2022/11/15 08:57:29;;;;;;;20.20;8.52;;;;;;;10.86;100.00;100658.44;4986406;28;20414;-68
2022/11/15 08:59:55;;;;;;;;;;;;;;;10.85;100.00;100654.97;4988261;28;20030;-68
2022/11/15 09:02:20;;;;;;;13.18;7.53;;;;;;;10.96;100.00;100653.69;4983852;28;19926;-67
2022/11/15 09:04:45;;;;;;;17.92;8.32;;;;;;;10.83;100.00;100659.41;4981741;28;20408;-67
2022/11/15 09:07:11;;;;;;;16.17;7.93;;;;;;;10.89;100.00;100662.75;4986297;28;20026;-67
2022/11/15 09:09:37;;;;;;;17.98;8.45;;;;;;;11.02;100.00;100656.09;4985981;28;20119;-66
2022/11/15 09:12:03;;;;;;;12.05;7.78;;;;;;;11.11;100.00;100666.25;4985817;28;20034;-66
2022/11/15 09:14:29;;;;;;;14.10;8.07;;;;;;;11.11;100.00;100666.25;4986360;28;20077;-66
2022/11/15 09:16:55;;;;;;;15.75;7.90;;;;;;;11.11;100.00;100662.78;4982890;28;20035;-66
2022/11/15 09:19:20;;;;;;;14.40;7.78;;;;;;;10.99;100.00;100669.38;4987983;28;20134;-67
2022/11/15 09:21:46;;;;;;;12.35;6.70;;;;;;;11.06;100.00;100662.94;4986678;28;20113;-67
2022/11/15 09:24:11;;;;;;;15.70;6.75;;;;;;;11.18;100.00;100673.94;4986927;28;20481;-68
2022/11/15 09:26:36;;;;;;;12.85;6.90;;;;;;;11.20;100.00;100666.84;4987232;28;20030;-68
2022/11/15 09:29:02;;;;;;;13.90;6.60;;;;;;;11.17;100.00;100662.50;4985521;28;20050;-67
2022/11/15 09:31:29;;;;;;;11.13;6.28;;;;;;;11.34;100.00;100661.00;4984364;28;20026;-69
2022/11/15 09:33:54;;;;;;;9.70;6.18;;;;;;;11.41;100.00;100658.97;4968409;28;20027;-68
2022/11/15 09:36:20;;;;;;;12.13;6.22;;;;;;;11.46;100.00;100655.22;4974329;28;20117;-69
2022/11/15 09:38:45;;;;;;;11.40;6.18;;;;;;;11.49;100.00;100662.16;4982896;28;20022;-68
2022/11/15 09:41:19;;;;;;;8.70;5.93;;;;;;;11.50;100.00;100659.44;4985740;28;20484;-69
2022/11/15 09:44:03;;;;;;;10.55;6.47;;;;;;;11.62;100.00;100665.16;4985357;28;20044;-69
2022/11/15 09:47:03;;;;;;;8.77;5.28;;;;;;;11.64;100.00;100668.59;4983158;28;20044;-68
2022/11/15 09:49:29;;;;;;;9.25;5.70;;;;;;;11.75;100.00;100666.34;4984765;28;20096;-67
2022/11/15 09:51:55;;;;;;;13.90;6.72;;;;;;;11.80;100.00;100667.97;4985477;28;20192;-68
2022/11/15 09:54:28;;;;;;;11.10;5.18;;;;;;;11.85;100.00;100669.47;4987227;28;20512;-71
2022/11/15 09:56:56;;;;;;;13.15;5.20;;;;;;;11.88;100.00;100655.28;4984229;28;20023;-67
2022/11/15 09:59:46;;;;;;;10.43;4.85;;;;;;;11.78;100.00;100646.91;4986624;28;20164;-68
2022/11/15 10:02:20;;;;;;;19.02;4.60;;;;;;;11.81;100.00;100641.50;4986648;28;20097;-67
2022/11/15 10:04:46;;;;;;;10.50;4.53;;;;;;;11.63;100.00;100633.41;4983999;28;20058;-69
2022/11/15 10:07:20;;;;;;;9.70;4.13;;;;;;;11.84;100.00;100629.94;4978391;28;20070;-70
2022/11/15 10:09:51;;;;;;;8.15;4.10;;;;;;;11.96;100.00;100631.19;4985143;28;20046;-68
2022/11/15 10:12:17;;;;;;;9.75;4.30;;;;;;;12.03;100.00;100619.44;4987190;28;20026;-68
2022/11/15 10:14:43;;;;;;;8.77;3.72;;;;;;;11.75;100.00;100612.72;4988302;28;20023;-67
2022/11/15 10:17:43;;;;;;;10.63;3.53;;;;;;;11.74;100.00;100603.09;4984996;28;20393;-66
2022/11/15 10:20:22;;;;;;;8.43;3.53;;;;;;;11.76;100.00;100606.50;4987242;28;20413;-67
2022/11/15 10:22:53;;;;;;;9.63;3.30;;;;;;;11.97;100.00;100614.41;4990892;28;20345;-68
2022/11/15 10:25:29;;;;;;;10.40;3.88;;;;;;;12.09;100.00;100619.22;4988777;28;20026;-69
2022/11/15 10:27:55;;;;;;;12.82;3.50;;;;;;;12.22;100.00;100611.59;4989390;28;20050;-66
2022/11/15 10:30:21;;;;;;;6.03;3.50;;;;;;;12.16;100.00;100605.75;4990966;28;20023;-69
2022/11/15 10:32:49;;;;;;;9.50;3.42;;;;;;;12.27;100.00;100614.03;4990586;28;20046;-67
2022/11/15 10:35:20;;;;;;;9.10;3.65;;;;;;;12.36;100.00;100600.41;4990311;28;20590;-68
2022/11/15 10:37:46;;;;;;;9.75;3.53;;;;;;;12.51;100.00;100593.56;4991150;28;20026;-67
2022/11/15 10:40:20;;;;;;;4.18;2.80;;;;;;;12.45;100.00;100587.69;4990082;28;20026;-67
2022/11/15 10:42:47;;;;;;;4.05;2.90;;;;;;;12.54;100.00;100576.72;4991859;28;20506;-67
2022/11/15 10:45:27;;;;;;;10.23;3.35;;;;;;;12.53;100.00;100571.50;4991987;28;20050;-67
2022/11/15 10:47:53;;;;;;;9.60;2.90;;;;;;;12.77;100.00;100572.13;4991195;28;20045;-70
2022/11/15 10:50:28;;;;;;;8.52;3.05;;;;;;;12.91;100.00;100567.97;4991977;28;20022;-67
2022/11/15 10:52:53;;;;;;;13.30;2.90;;;;;;;12.96;100.00;100561.53;4990888;28;20492;-68
2022/11/15 10:55:25;;;;;;;6.05;2.97;;;;;;;12.95;100.00;100566.91;4986686;28;20050;-67
2022/11/15 10:57:59;;;;;;;9.60;2.95;;;;;;;12.93;100.00;100564.31;4986301;28;20481;-67
2022/11/15 11:00:32;;;;;;;7.65;2.65;;;;;;;12.81;100.00;100568.41;4985467;28;20116;-66
2022/11/15 11:03:29;;;;;;;7.20;2.42;;;;;;;13.18;100.00;100567.56;4985747;28;20448;-69
2022/11/15 11:06:07;;;;;;;8.07;2.42;;;;;;;13.14;100.00;100567.72;4997035;28;20025;-69
2022/11/15 11:08:33;;;;;;;4.18;2.38;;;;;;;13.33;100.00;100564.16;4987608;28;20018;-68
2022/11/15 11:11:00;;;;;;;6.68;2.45;;;;;;;13.23;100.00;100562.88;4984376;28;20034;-68
2022/11/15 11:13:30;;;;;;;9.38;2.05;;;;;;;13.29;100.00;100554.66;4986900;28;20041;-67
2022/11/15 11:16:13;;;;;;;4.78;2.33;;;;;;;13.35;100.00;100546.41;4986650;28;20034;-67
2022/11/15 11:19:06;;;;;;;7.65;2.30;;;;;;;13.52;100.00;100542.91;4985092;28;20394;-67
2022/11/15 11:22:09;;;;;;;7.68;2.47;;;;;;;13.53;100.00;100543.78;4985839;28;20306;-66
2022/11/15 11:24:45;;;;;;;7.53;2.10;;;;;;;13.34;99.43;100526.16;4988212;28;20030;-68